sensor_id;sensor_type;location;lat;lon;timestamp;temperature;humidity
38480;DHT22;62333;51.980;5.934;2023-04-30T00:01:38;12.10;76.80
38480;DHT22;62333;51.980;5.934;2023-04-30T00:04:04;12.10;76.80
38480;DHT22;62333;51.980;5.934;2023-04-30T00:06:30;12.10;76.90
38480;DHT22;62333;51.980;5.934;2023-04-30T00:08:56;12.00;76.90
38480;DHT22;62333;51.980;5.934;2023-04-30T00:11:22;12.00;77.00
38480;DHT22;62333;51.980;5.934;2023-04-30T00:13:48;12.00;77.00
38480;DHT22;62333;51.980;5.934;2023-04-30T00:16:13;12.00;77.20
38480;DHT22;62333;51.980;5.934;2023-04-30T00:18:39;11.90;77.20
38480;DHT22;62333;51.980;5.934;2023-04-30T00:21:05;11.90;77.30
38480;DHT22;62333;51.980;5.934;2023-04-30T00:23:30;11.90;77.40
38480;DHT22;62333;51.980;5.934;2023-04-30T00:25:56;11.90;77.40
38480;DHT22;62333;51.980;5.934;2023-04-30T00:28:22;11.80;77.40
38480;DHT22;62333;51.980;5.934;2023-04-30T00:30:47;11.80;77.50
38480;DHT22;62333;51.980;5.934;2023-04-30T00:33:13;11.80;77.70
38480;DHT22;62333;51.980;5.934;2023-04-30T00:35:39;11.80;77.80
38480;DHT22;62333;51.980;5.934;2023-04-30T00:38:05;11.70;77.70
38480;DHT22;62333;51.980;5.934;2023-04-30T00:40:33;11.70;77.80
38480;DHT22;62333;51.980;5.934;2023-04-30T00:42:59;11.70;77.90
38480;DHT22;62333;51.980;5.934;2023-04-30T00:45:25;11.60;78.00
38480;DHT22;62333;51.980;5.934;2023-04-30T00:47:50;11.60;78.00
38480;DHT22;62333;51.980;5.934;2023-04-30T00:50:16;11.60;78.10
38480;DHT22;62333;51.980;5.934;2023-04-30T00:52:42;11.50;78.20
38480;DHT22;62333;51.980;5.934;2023-04-30T00:55:10;11.50;78.30
38480;DHT22;62333;51.980;5.934;2023-04-30T00:57:37;11.50;78.70
38480;DHT22;62333;51.980;5.934;2023-04-30T01:00:04;11.50;78.70
38480;DHT22;62333;51.980;5.934;2023-04-30T01:02:30;11.50;78.80
38480;DHT22;62333;51.980;5.934;2023-04-30T01:04:56;11.40;78.90
38480;DHT22;62333;51.980;5.934;2023-04-30T01:07:25;11.40;78.90
38480;DHT22;62333;51.980;5.934;2023-04-30T01:09:53;11.40;79.10
38480;DHT22;62333;51.980;5.934;2023-04-30T01:17:54;11.30;79.10
38480;DHT22;62333;51.980;5.934;2023-04-30T01:20:22;11.30;79.20
38480;DHT22;62333;51.980;5.934;2023-04-30T01:22:56;11.30;79.30
38480;DHT22;62333;51.980;5.934;2023-04-30T01:28:23;11.20;79.60
38480;DHT22;62333;51.980;5.934;2023-04-30T01:30:49;11.20;79.70
38480;DHT22;62333;51.980;5.934;2023-04-30T01:33:15;11.10;79.80
38480;DHT22;62333;51.980;5.934;2023-04-30T01:44:41;11.10;80.00
38480;DHT22;62333;51.980;5.934;2023-04-30T01:47:02;11.10;80.00
38480;DHT22;62333;51.980;5.934;2023-04-30T01:52:32;11.00;80.00
38480;DHT22;62333;51.980;5.934;2023-04-30T01:55:07;11.00;80.10
38480;DHT22;62333;51.980;5.934;2023-04-30T01:57:38;10.90;80.10
38480;DHT22;62333;51.980;5.934;2023-04-30T02:00:06;10.90;80.10
38480;DHT22;62333;51.980;5.934;2023-04-30T02:02:35;10.90;80.10
38480;DHT22;62333;51.980;5.934;2023-04-30T02:05:00;10.90;80.20
38480;DHT22;62333;51.980;5.934;2023-04-30T02:07:36;10.90;80.30
38480;DHT22;62333;51.980;5.934;2023-04-30T02:10:05;10.90;80.50
38480;DHT22;62333;51.980;5.934;2023-04-30T02:12:31;10.80;80.50
38480;DHT22;62333;51.980;5.934;2023-04-30T02:14:56;10.80;80.60
38480;DHT22;62333;51.980;5.934;2023-04-30T02:17:22;10.80;80.60
38480;DHT22;62333;51.980;5.934;2023-04-30T02:19:47;10.70;80.70
38480;DHT22;62333;51.980;5.934;2023-04-30T02:22:13;10.70;80.70
38480;DHT22;62333;51.980;5.934;2023-04-30T02:24:39;10.70;80.80
38480;DHT22;62333;51.980;5.934;2023-04-30T02:27:04;10.70;80.90
38480;DHT22;62333;51.980;5.934;2023-04-30T02:29:30;10.70;81.00
38480;DHT22;62333;51.980;5.934;2023-04-30T02:31:59;10.70;81.00
38480;DHT22;62333;51.980;5.934;2023-04-30T02:34:25;10.60;81.00
38480;DHT22;62333;51.980;5.934;2023-04-30T02:36:50;10.70;81.10
38480;DHT22;62333;51.980;5.934;2023-04-30T02:39:16;10.60;81.10
38480;DHT22;62333;51.980;5.934;2023-04-30T02:41:42;10.60;81.30
38480;DHT22;62333;51.980;5.934;2023-04-30T02:44:08;10.60;81.50
38480;DHT22;62333;51.980;5.934;2023-04-30T02:46:33;10.50;81.50
38480;DHT22;62333;51.980;5.934;2023-04-30T02:48:59;10.60;81.70
38480;DHT22;62333;51.980;5.934;2023-04-30T02:51:25;10.60;81.70
38480;DHT22;62333;51.980;5.934;2023-04-30T02:53:51;10.50;81.70
38480;DHT22;62333;51.980;5.934;2023-04-30T02:56:16;10.50;81.70
38480;DHT22;62333;51.980;5.934;2023-04-30T02:58:42;10.50;81.80
38480;DHT22;62333;51.980;5.934;2023-04-30T03:01:08;10.50;81.80
38480;DHT22;62333;51.980;5.934;2023-04-30T03:03:33;10.50;81.90
38480;DHT22;62333;51.980;5.934;2023-04-30T03:05:59;10.50;81.90
38480;DHT22;62333;51.980;5.934;2023-04-30T03:08:25;10.50;82.00
38480;DHT22;62333;51.980;5.934;2023-04-30T03:10:51;10.50;82.00
38480;DHT22;62333;51.980;5.934;2023-04-30T03:13:17;10.50;82.10
38480;DHT22;62333;51.980;5.934;2023-04-30T03:15:42;10.40;82.10
38480;DHT22;62333;51.980;5.934;2023-04-30T03:18:09;10.40;82.10
38480;DHT22;62333;51.980;5.934;2023-04-30T03:20:35;10.40;82.10
38480;DHT22;62333;51.980;5.934;2023-04-30T03:23:01;10.40;82.20
38480;DHT22;62333;51.980;5.934;2023-04-30T03:25:26;10.40;82.20
38480;DHT22;62333;51.980;5.934;2023-04-30T03:27:52;10.40;82.30
38480;DHT22;62333;51.980;5.934;2023-04-30T03:30:18;10.40;82.30
38480;DHT22;62333;51.980;5.934;2023-04-30T03:32:43;10.30;82.30
38480;DHT22;62333;51.980;5.934;2023-04-30T03:35:09;10.30;82.40
38480;DHT22;62333;51.980;5.934;2023-04-30T03:37:35;10.30;82.50
38480;DHT22;62333;51.980;5.934;2023-04-30T03:40:00;10.30;82.60
38480;DHT22;62333;51.980;5.934;2023-04-30T03:42:26;10.20;82.60
38480;DHT22;62333;51.980;5.934;2023-04-30T03:44:52;10.20;82.70
38480;DHT22;62333;51.980;5.934;2023-04-30T03:47:17;10.20;82.70
38480;DHT22;62333;51.980;5.934;2023-04-30T03:49:43;10.20;82.70
38480;DHT22;62333;51.980;5.934;2023-04-30T03:52:10;10.20;82.80
38480;DHT22;62333;51.980;5.934;2023-04-30T03:54:35;10.10;82.80
38480;DHT22;62333;51.980;5.934;2023-04-30T03:57:01;10.10;82.90
38480;DHT22;62333;51.980;5.934;2023-04-30T03:59:29;10.10;83.00
38480;DHT22;62333;51.980;5.934;2023-04-30T04:01:55;10.10;83.00
38480;DHT22;62333;51.980;5.934;2023-04-30T04:04:21;10.10;83.10
38480;DHT22;62333;51.980;5.934;2023-04-30T04:06:46;10.00;83.00
38480;DHT22;62333;51.980;5.934;2023-04-30T04:09:12;10.00;83.10
38480;DHT22;62333;51.980;5.934;2023-04-30T04:11:38;10.00;83.20
38480;DHT22;62333;51.980;5.934;2023-04-30T04:14:03;10.00;83.20
38480;DHT22;62333;51.980;5.934;2023-04-30T04:16:29;9.90;83.20
38480;DHT22;62333;51.980;5.934;2023-04-30T04:18:55;9.90;83.40
38480;DHT22;62333;51.980;5.934;2023-04-30T04:21:21;9.90;83.40
38480;DHT22;62333;51.980;5.934;2023-04-30T04:23:46;9.90;83.60
38480;DHT22;62333;51.980;5.934;2023-04-30T04:26:12;9.90;83.70
38480;DHT22;62333;51.980;5.934;2023-04-30T04:28:39;9.90;83.90
38480;DHT22;62333;51.980;5.934;2023-04-30T04:31:05;9.90;84.00
38480;DHT22;62333;51.980;5.934;2023-04-30T04:33:32;9.90;84.20
38480;DHT22;62333;51.980;5.934;2023-04-30T04:35:58;9.80;84.20
38480;DHT22;62333;51.980;5.934;2023-04-30T04:38:24;9.80;84.30
38480;DHT22;62333;51.980;5.934;2023-04-30T04:40:51;9.80;84.40
38480;DHT22;62333;51.980;5.934;2023-04-30T04:43:17;9.80;84.50
38480;DHT22;62333;51.980;5.934;2023-04-30T04:45:43;9.90;84.70
38480;DHT22;62333;51.980;5.934;2023-04-30T04:48:09;9.90;84.90
38480;DHT22;62333;51.980;5.934;2023-04-30T04:50:34;9.90;84.90
38480;DHT22;62333;51.980;5.934;2023-04-30T04:53:00;10.00;85.00
38480;DHT22;62333;51.980;5.934;2023-04-30T04:55:26;10.00;85.10
38480;DHT22;62333;51.980;5.934;2023-04-30T04:57:51;10.00;85.00
38480;DHT22;62333;51.980;5.934;2023-04-30T05:00:17;10.10;85.30
38480;DHT22;62333;51.980;5.934;2023-04-30T05:02:43;10.10;85.40
38480;DHT22;62333;51.980;5.934;2023-04-30T05:05:09;10.20;85.50
38480;DHT22;62333;51.980;5.934;2023-04-30T05:07:35;10.30;85.60
38480;DHT22;62333;51.980;5.934;2023-04-30T05:10:01;10.30;85.60
38480;DHT22;62333;51.980;5.934;2023-04-30T05:12:26;10.40;85.70
38480;DHT22;62333;51.980;5.934;2023-04-30T05:14:52;10.50;85.70
38480;DHT22;62333;51.980;5.934;2023-04-30T05:17:18;10.60;85.70
38480;DHT22;62333;51.980;5.934;2023-04-30T05:19:43;10.60;85.70
38480;DHT22;62333;51.980;5.934;2023-04-30T05:22:12;10.70;85.80
38480;DHT22;62333;51.980;5.934;2023-04-30T05:24:37;10.70;85.80
38480;DHT22;62333;51.980;5.934;2023-04-30T05:27:03;10.80;85.70
38480;DHT22;62333;51.980;5.934;2023-04-30T05:29:29;10.90;85.80
38480;DHT22;62333;51.980;5.934;2023-04-30T05:31:56;11.00;85.80
38480;DHT22;62333;51.980;5.934;2023-04-30T05:34:21;11.00;85.80
38480;DHT22;62333;51.980;5.934;2023-04-30T05:36:47;11.10;85.80
38480;DHT22;62333;51.980;5.934;2023-04-30T05:39:13;11.20;85.70
38480;DHT22;62333;51.980;5.934;2023-04-30T05:41:38;11.30;85.70
38480;DHT22;62333;51.980;5.934;2023-04-30T05:44:04;11.40;85.60
38480;DHT22;62333;51.980;5.934;2023-04-30T05:46:31;11.50;85.40
38480;DHT22;62333;51.980;5.934;2023-04-30T05:48:57;11.50;85.20
38480;DHT22;62333;51.980;5.934;2023-04-30T05:51:22;11.60;85.10
38480;DHT22;62333;51.980;5.934;2023-04-30T05:53:48;11.70;85.00
38480;DHT22;62333;51.980;5.934;2023-04-30T05:56:14;11.70;84.80
38480;DHT22;62333;51.980;5.934;2023-04-30T05:58:39;11.80;84.70
38480;DHT22;62333;51.980;5.934;2023-04-30T06:01:05;11.80;84.50
38480;DHT22;62333;51.980;5.934;2023-04-30T06:03:31;11.90;84.40
38480;DHT22;62333;51.980;5.934;2023-04-30T06:05:56;12.00;84.20
38480;DHT22;62333;51.980;5.934;2023-04-30T06:08:22;12.10;84.10
38480;DHT22;62333;51.980;5.934;2023-04-30T06:10:49;12.20;84.00
38480;DHT22;62333;51.980;5.934;2023-04-30T06:13:15;12.30;83.80
38480;DHT22;62333;51.980;5.934;2023-04-30T06:15:40;12.40;83.70
38480;DHT22;62333;51.980;5.934;2023-04-30T06:18:06;12.50;83.50
38480;DHT22;62333;51.980;5.934;2023-04-30T06:20:32;12.60;83.20
38480;DHT22;62333;51.980;5.934;2023-04-30T06:22:58;12.80;83.10
38480;DHT22;62333;51.980;5.934;2023-04-30T06:25:24;12.80;82.70
38480;DHT22;62333;51.980;5.934;2023-04-30T06:27:50;12.90;82.50
38480;DHT22;62333;51.980;5.934;2023-04-30T06:30:18;13.00;82.30
38480;DHT22;62333;51.980;5.934;2023-04-30T06:32:44;13.10;82.30
38480;DHT22;62333;51.980;5.934;2023-04-30T06:35:10;13.20;82.00
38480;DHT22;62333;51.980;5.934;2023-04-30T06:37:36;13.20;81.60
38480;DHT22;62333;51.980;5.934;2023-04-30T06:40:05;13.30;81.50
38480;DHT22;62333;51.980;5.934;2023-04-30T06:42:32;13.40;81.30
38480;DHT22;62333;51.980;5.934;2023-04-30T06:45:02;13.50;81.10
38480;DHT22;62333;51.980;5.934;2023-04-30T06:47:31;13.60;80.80
38480;DHT22;62333;51.980;5.934;2023-04-30T06:50:01;13.60;80.50
38480;DHT22;62333;51.980;5.934;2023-04-30T06:52:27;13.70;80.30
38480;DHT22;62333;51.980;5.934;2023-04-30T06:54:52;13.70;79.90
38480;DHT22;62333;51.980;5.934;2023-04-30T06:57:18;13.80;79.90
38480;DHT22;62333;51.980;5.934;2023-04-30T06:59:44;13.90;79.70
38480;DHT22;62333;51.980;5.934;2023-04-30T07:02:10;14.00;79.40
38480;DHT22;62333;51.980;5.934;2023-04-30T07:04:35;14.10;79.30
38480;DHT22;62333;51.980;5.934;2023-04-30T07:07:01;14.10;79.00
38480;DHT22;62333;51.980;5.934;2023-04-30T07:09:28;14.20;78.90
38480;DHT22;62333;51.980;5.934;2023-04-30T07:11:53;14.30;78.70
38480;DHT22;62333;51.980;5.934;2023-04-30T07:14:20;14.40;78.40
38480;DHT22;62333;51.980;5.934;2023-04-30T07:16:48;14.50;78.20
38480;DHT22;62333;51.980;5.934;2023-04-30T07:19:14;14.60;78.10
38480;DHT22;62333;51.980;5.934;2023-04-30T07:21:39;14.70;77.90
38480;DHT22;62333;51.980;5.934;2023-04-30T07:24:05;14.80;77.50
38480;DHT22;62333;51.980;5.934;2023-04-30T07:26:31;14.90;77.20
38480;DHT22;62333;51.980;5.934;2023-04-30T07:28:56;15.00;76.80
38480;DHT22;62333;51.980;5.934;2023-04-30T07:31:22;15.00;76.40
38480;DHT22;62333;51.980;5.934;2023-04-30T07:33:48;15.10;76.20
38480;DHT22;62333;51.980;5.934;2023-04-30T07:36:15;15.20;76.20
38480;DHT22;62333;51.980;5.934;2023-04-30T07:38:41;15.30;76.00
38480;DHT22;62333;51.980;5.934;2023-04-30T07:41:06;15.40;75.90
38480;DHT22;62333;51.980;5.934;2023-04-30T07:43:34;15.50;75.40
38480;DHT22;62333;51.980;5.934;2023-04-30T07:46:00;15.60;75.00
38480;DHT22;62333;51.980;5.934;2023-04-30T07:48:26;15.70;75.10
38480;DHT22;62333;51.980;5.934;2023-04-30T07:50:51;15.80;74.70
38480;DHT22;62333;51.980;5.934;2023-04-30T07:53:17;15.90;74.20
38480;DHT22;62333;51.980;5.934;2023-04-30T07:55:43;15.90;73.60
38480;DHT22;62333;51.980;5.934;2023-04-30T07:58:08;16.00;73.50
38480;DHT22;62333;51.980;5.934;2023-04-30T08:00:34;16.10;73.50
38480;DHT22;62333;51.980;5.934;2023-04-30T08:03:00;16.10;73.20
38480;DHT22;62333;51.980;5.934;2023-04-30T08:05:26;16.20;72.90
38480;DHT22;62333;51.980;5.934;2023-04-30T08:07:52;16.30;72.70
38480;DHT22;62333;51.980;5.934;2023-04-30T08:10:18;16.40;72.60
38480;DHT22;62333;51.980;5.934;2023-04-30T08:12:43;16.50;72.40
38480;DHT22;62333;51.980;5.934;2023-04-30T08:15:09;16.60;72.10
38480;DHT22;62333;51.980;5.934;2023-04-30T08:17:35;16.60;71.90
38480;DHT22;62333;51.980;5.934;2023-04-30T08:20:03;16.70;71.70
38480;DHT22;62333;51.980;5.934;2023-04-30T08:22:29;16.80;71.80
38480;DHT22;62333;51.980;5.934;2023-04-30T08:24:55;16.90;72.20
38480;DHT22;62333;51.980;5.934;2023-04-30T08:27:22;17.00;70.90
38480;DHT22;62333;51.980;5.934;2023-04-30T08:29:48;17.20;70.50
38480;DHT22;62333;51.980;5.934;2023-04-30T08:32:13;17.20;70.50
38480;DHT22;62333;51.980;5.934;2023-04-30T08:34:39;17.30;70.00
38480;DHT22;62333;51.980;5.934;2023-04-30T08:37:06;17.40;69.90
38480;DHT22;62333;51.980;5.934;2023-04-30T08:39:31;17.50;69.80
38480;DHT22;62333;51.980;5.934;2023-04-30T08:42:01;17.60;69.50
38480;DHT22;62333;51.980;5.934;2023-04-30T08:44:29;17.70;68.90
38480;DHT22;62333;51.980;5.934;2023-04-30T08:46:56;17.80;68.80
38480;DHT22;62333;51.980;5.934;2023-04-30T08:49:25;17.90;68.70
38480;DHT22;62333;51.980;5.934;2023-04-30T08:51:51;17.90;68.30
38480;DHT22;62333;51.980;5.934;2023-04-30T08:54:18;18.00;67.80
38480;DHT22;62333;51.980;5.934;2023-04-30T08:56:46;18.00;67.30
38480;DHT22;62333;51.980;5.934;2023-04-30T08:59:12;18.20;67.20
38480;DHT22;62333;51.980;5.934;2023-04-30T09:01:38;18.20;67.10
38480;DHT22;62333;51.980;5.934;2023-04-30T09:04:05;18.30;66.50
38480;DHT22;62333;51.980;5.934;2023-04-30T09:06:30;18.30;66.20
38480;DHT22;62333;51.980;5.934;2023-04-30T09:08:56;18.40;66.10
38480;DHT22;62333;51.980;5.934;2023-04-30T09:11:29;18.50;65.70
38480;DHT22;62333;51.980;5.934;2023-04-30T09:13:57;18.60;65.10
38480;DHT22;62333;51.980;5.934;2023-04-30T09:16:25;18.70;64.80
38480;DHT22;62333;51.980;5.934;2023-04-30T09:18:51;18.60;64.50
38480;DHT22;62333;51.980;5.934;2023-04-30T09:21:30;18.70;64.20
38480;DHT22;62333;51.980;5.934;2023-04-30T09:24:01;18.80;63.90
38480;DHT22;62333;51.980;5.934;2023-04-30T09:26:33;18.80;63.40
38480;DHT22;62333;51.980;5.934;2023-04-30T09:28:59;18.90;63.30
38480;DHT22;62333;51.980;5.934;2023-04-30T09:31:27;19.00;63.40
38480;DHT22;62333;51.980;5.934;2023-04-30T09:33:53;19.10;63.50
38480;DHT22;62333;51.980;5.934;2023-04-30T09:36:19;19.30;63.50
38480;DHT22;62333;51.980;5.934;2023-04-30T09:38:45;19.40;62.40
38480;DHT22;62333;51.980;5.934;2023-04-30T09:41:27;19.50;62.10
38480;DHT22;62333;51.980;5.934;2023-04-30T09:43:54;19.60;61.80
38480;DHT22;62333;51.980;5.934;2023-04-30T09:46:21;19.70;61.40
38480;DHT22;62333;51.980;5.934;2023-04-30T09:48:56;19.70;61.30
38480;DHT22;62333;51.980;5.934;2023-04-30T09:51:22;19.90;61.30
38480;DHT22;62333;51.980;5.934;2023-04-30T09:53:50;19.90;61.00
38480;DHT22;62333;51.980;5.934;2023-04-30T09:56:19;20.00;60.90
38480;DHT22;62333;51.980;5.934;2023-04-30T09:58:49;20.10;60.50
38480;DHT22;62333;51.980;5.934;2023-04-30T10:01:16;20.30;60.50
38480;DHT22;62333;51.980;5.934;2023-04-30T10:03:42;20.50;59.90
38480;DHT22;62333;51.980;5.934;2023-04-30T10:06:12;20.60;59.00
38480;DHT22;62333;51.980;5.934;2023-04-30T10:08:42;20.70;58.20
38480;DHT22;62333;51.980;5.934;2023-04-30T10:11:09;20.80;57.80
38480;DHT22;62333;51.980;5.934;2023-04-30T10:13:46;20.80;56.50
38480;DHT22;62333;51.980;5.934;2023-04-30T10:16:23;20.90;55.70
38480;DHT22;62333;51.980;5.934;2023-04-30T10:18:53;20.90;56.00
38480;DHT22;62333;51.980;5.934;2023-04-30T10:21:23;21.00;56.10
38480;DHT22;62333;51.980;5.934;2023-04-30T10:23:50;21.00;55.70
38480;DHT22;62333;51.980;5.934;2023-04-30T10:26:16;21.10;55.50
38480;DHT22;62333;51.980;5.934;2023-04-30T10:28:43;21.10;55.40
38480;DHT22;62333;51.980;5.934;2023-04-30T10:31:11;21.10;55.20
38480;DHT22;62333;51.980;5.934;2023-04-30T10:36:32;21.30;54.80
38480;DHT22;62333;51.980;5.934;2023-04-30T10:39:01;21.40;54.70
38480;DHT22;62333;51.980;5.934;2023-04-30T10:41:26;21.60;53.90
38480;DHT22;62333;51.980;5.934;2023-04-30T10:43:57;21.50;53.60
38480;DHT22;62333;51.980;5.934;2023-04-30T10:46:25;21.60;53.60
38480;DHT22;62333;51.980;5.934;2023-04-30T10:48:53;21.70;53.00
38480;DHT22;62333;51.980;5.934;2023-04-30T10:51:20;21.70;52.90
38480;DHT22;62333;51.980;5.934;2023-04-30T10:53:49;21.80;52.90
38480;DHT22;62333;51.980;5.934;2023-04-30T10:56:29;21.80;52.60
38480;DHT22;62333;51.980;5.934;2023-04-30T10:58:58;21.80;52.60
38480;DHT22;62333;51.980;5.934;2023-04-30T11:01:28;21.80;52.30
38480;DHT22;62333;51.980;5.934;2023-04-30T11:04:08;21.90;52.20
38480;DHT22;62333;51.980;5.934;2023-04-30T11:09:41;21.90;52.00
38480;DHT22;62333;51.980;5.934;2023-04-30T11:12:13;21.90;51.80
38480;DHT22;62333;51.980;5.934;2023-04-30T11:14:41;21.90;51.80
38480;DHT22;62333;51.980;5.934;2023-04-30T11:17:09;21.90;51.80
38480;DHT22;62333;51.980;5.934;2023-04-30T11:19:41;21.90;51.70
38480;DHT22;62333;51.980;5.934;2023-04-30T11:22:14;21.90;51.60
38480;DHT22;62333;51.980;5.934;2023-04-30T11:27:25;22.10;51.70
38480;DHT22;62333;51.980;5.934;2023-04-30T11:29:52;22.10;51.60
38480;DHT22;62333;51.980;5.934;2023-04-30T11:32:19;22.20;51.90
38480;DHT22;62333;51.980;5.934;2023-04-30T11:34:46;22.40;51.30
38480;DHT22;62333;51.980;5.934;2023-04-30T11:37:17;22.50;51.10
38480;DHT22;62333;51.980;5.934;2023-04-30T11:39:43;22.70;50.40
38480;DHT22;62333;51.980;5.934;2023-04-30T11:42:14;22.60;50.10
38480;DHT22;62333;51.980;5.934;2023-04-30T11:44:40;22.80;50.10
38480;DHT22;62333;51.980;5.934;2023-04-30T11:47:06;23.00;50.00
38480;DHT22;62333;51.980;5.934;2023-04-30T11:49:31;23.30;49.60
38480;DHT22;62333;51.980;5.934;2023-04-30T11:51:58;23.40;49.30
38480;DHT22;62333;51.980;5.934;2023-04-30T11:54:24;23.60;49.10
38480;DHT22;62333;51.980;5.934;2023-04-30T11:56:49;23.80;48.50
38480;DHT22;62333;51.980;5.934;2023-04-30T11:59:16;24.10;48.30
38480;DHT22;62333;51.980;5.934;2023-04-30T12:01:42;24.40;47.80
38480;DHT22;62333;51.980;5.934;2023-04-30T12:04:08;24.60;47.30
38480;DHT22;62333;51.980;5.934;2023-04-30T12:06:34;25.00;47.00
38480;DHT22;62333;51.980;5.934;2023-04-30T12:09:02;25.30;46.40
38480;DHT22;62333;51.980;5.934;2023-04-30T12:11:37;25.60;46.00
38480;DHT22;62333;51.980;5.934;2023-04-30T12:16:42;26.40;45.20
38480;DHT22;62333;51.980;5.934;2023-04-30T12:19:14;26.80;44.40
38480;DHT22;62333;51.980;5.934;2023-04-30T12:21:43;27.10;43.70
38480;DHT22;62333;51.980;5.934;2023-04-30T12:24:11;27.60;43.50
38480;DHT22;62333;51.980;5.934;2023-04-30T12:26:38;27.90;42.70
38480;DHT22;62333;51.980;5.934;2023-04-30T12:29:17;28.30;41.90
38480;DHT22;62333;51.980;5.934;2023-04-30T12:31:44;28.60;41.70
38480;DHT22;62333;51.980;5.934;2023-04-30T12:34:12;28.80;40.60
38480;DHT22;62333;51.980;5.934;2023-04-30T12:36:39;29.10;40.10
38480;DHT22;62333;51.980;5.934;2023-04-30T12:39:13;29.40;39.50
38480;DHT22;62333;51.980;5.934;2023-04-30T12:41:46;29.70;38.80
38480;DHT22;62333;51.980;5.934;2023-04-30T12:44:17;30.10;38.50
38480;DHT22;62333;51.980;5.934;2023-04-30T12:46:43;30.50;38.00
38480;DHT22;62333;51.980;5.934;2023-04-30T12:49:10;30.90;37.80
38480;DHT22;62333;51.980;5.934;2023-04-30T12:51:37;31.10;37.20
38480;DHT22;62333;51.980;5.934;2023-04-30T12:54:05;31.20;36.80
38480;DHT22;62333;51.980;5.934;2023-04-30T12:56:31;31.40;36.20
38480;DHT22;62333;51.980;5.934;2023-04-30T12:58:57;31.60;35.90
38480;DHT22;62333;51.980;5.934;2023-04-30T13:01:22;31.80;35.60
38480;DHT22;62333;51.980;5.934;2023-04-30T13:03:50;32.10;35.50
38480;DHT22;62333;51.980;5.934;2023-04-30T13:06:16;32.30;34.80
38480;DHT22;62333;51.980;5.934;2023-04-30T13:08:43;32.40;34.80
38480;DHT22;62333;51.980;5.934;2023-04-30T13:11:09;32.70;36.80
38480;DHT22;62333;51.980;5.934;2023-04-30T13:13:35;32.90;36.00
38480;DHT22;62333;51.980;5.934;2023-04-30T13:16:01;33.20;42.90
38480;DHT22;62333;51.980;5.934;2023-04-30T13:18:27;33.40;44.30
38480;DHT22;62333;51.980;5.934;2023-04-30T13:20:52;33.70;60.90
38480;DHT22;62333;51.980;5.934;2023-04-30T13:23:18;33.50;50.50
38480;DHT22;62333;51.980;5.934;2023-04-30T13:25:44;33.80;42.30
38480;DHT22;62333;51.980;5.934;2023-04-30T13:28:10;34.00;42.40
38480;DHT22;62333;51.980;5.934;2023-04-30T13:30:36;33.90;41.40
38480;DHT22;62333;51.980;5.934;2023-04-30T13:33:02;33.80;40.90
38480;DHT22;62333;51.980;5.934;2023-04-30T13:35:28;33.90;40.80
38480;DHT22;62333;51.980;5.934;2023-04-30T13:37:54;33.70;40.40
38480;DHT22;62333;51.980;5.934;2023-04-30T13:40:20;33.30;40.50
38480;DHT22;62333;51.980;5.934;2023-04-30T13:42:46;33.00;40.70
38480;DHT22;62333;51.980;5.934;2023-04-30T13:45:13;32.70;40.80
38480;DHT22;62333;51.980;5.934;2023-04-30T13:47:39;32.50;41.30
38480;DHT22;62333;51.980;5.934;2023-04-30T13:50:05;32.40;41.60
38480;DHT22;62333;51.980;5.934;2023-04-30T13:59:51;31.40;59.30
38480;DHT22;62333;51.980;5.934;2023-04-30T14:02:17;31.20;59.00
38480;DHT22;62333;51.980;5.934;2023-04-30T14:04:43;31.10;45.60
38480;DHT22;62333;51.980;5.934;2023-04-30T14:07:10;31.00;45.70
38480;DHT22;62333;51.980;5.934;2023-04-30T14:09:36;30.90;45.80
38480;DHT22;62333;51.980;5.934;2023-04-30T14:12:02;30.50;45.80
38480;DHT22;62333;51.980;5.934;2023-04-30T14:14:28;30.20;58.80
38480;DHT22;62333;51.980;5.934;2023-04-30T14:16:53;29.50;57.20
38480;DHT22;62333;51.980;5.934;2023-04-30T14:19:20;29.10;47.70
38480;DHT22;62333;51.980;5.934;2023-04-30T14:21:46;28.40;42.80
38480;DHT22;62333;51.980;5.934;2023-04-30T14:24:12;29.20;51.40
38480;DHT22;62333;51.980;5.934;2023-04-30T14:26:38;27.00;36.70
38480;DHT22;62333;51.980;5.934;2023-04-30T14:29:07;26.50;37.10
38480;DHT22;62333;51.980;5.934;2023-04-30T14:31:32;26.00;38.60
38480;DHT22;62333;51.980;5.934;2023-04-30T14:33:58;25.50;38.30
38480;DHT22;62333;51.980;5.934;2023-04-30T14:36:24;25.10;38.90
38480;DHT22;62333;51.980;5.934;2023-04-30T14:38:52;24.70;39.40
38480;DHT22;62333;51.980;5.934;2023-04-30T14:41:17;24.30;42.80
38480;DHT22;62333;51.980;5.934;2023-04-30T14:43:43;24.00;56.10
38480;DHT22;62333;51.980;5.934;2023-04-30T14:46:09;23.50;49.50
38480;DHT22;62333;51.980;5.934;2023-04-30T14:48:36;23.40;49.20
38480;DHT22;62333;51.980;5.934;2023-04-30T14:51:02;23.10;46.10
38480;DHT22;62333;51.980;5.934;2023-04-30T14:53:28;22.90;44.50
38480;DHT22;62333;51.980;5.934;2023-04-30T14:55:53;22.60;41.90
38480;DHT22;62333;51.980;5.934;2023-04-30T14:58:19;22.50;42.30
38480;DHT22;62333;51.980;5.934;2023-04-30T15:00:45;22.30;42.60
38480;DHT22;62333;51.980;5.934;2023-04-30T15:03:12;22.20;42.90
38480;DHT22;62333;51.980;5.934;2023-04-30T15:05:39;22.10;43.00
38480;DHT22;62333;51.980;5.934;2023-04-30T15:08:05;22.00;43.40
38480;DHT22;62333;51.980;5.934;2023-04-30T15:10:31;22.00;43.50
38480;DHT22;62333;51.980;5.934;2023-04-30T15:12:56;21.90;44.20
38480;DHT22;62333;51.980;5.934;2023-04-30T15:15:22;21.80;43.80
38480;DHT22;62333;51.980;5.934;2023-04-30T15:17:56;21.70;43.90
38480;DHT22;62333;51.980;5.934;2023-04-30T15:20:22;21.50;43.90
38480;DHT22;62333;51.980;5.934;2023-04-30T15:22:49;21.40;44.00
38480;DHT22;62333;51.980;5.934;2023-04-30T15:25:15;21.30;44.20
38480;DHT22;62333;51.980;5.934;2023-04-30T15:27:42;21.20;44.20
38480;DHT22;62333;51.980;5.934;2023-04-30T15:30:08;21.10;44.10
38480;DHT22;62333;51.980;5.934;2023-04-30T15:32:34;21.00;44.90
38480;DHT22;62333;51.980;5.934;2023-04-30T15:35:00;20.90;44.50
38480;DHT22;62333;51.980;5.934;2023-04-30T15:37:26;20.80;44.70
38480;DHT22;62333;51.980;5.934;2023-04-30T15:39:51;20.80;45.00
38480;DHT22;62333;51.980;5.934;2023-04-30T15:42:17;20.80;45.20
38480;DHT22;62333;51.980;5.934;2023-04-30T15:44:43;20.80;45.40
38480;DHT22;62333;51.980;5.934;2023-04-30T15:47:08;20.80;45.60
38480;DHT22;62333;51.980;5.934;2023-04-30T15:49:34;20.80;45.80
38480;DHT22;62333;51.980;5.934;2023-04-30T15:52:00;20.80;46.00
38480;DHT22;62333;51.980;5.934;2023-04-30T15:54:25;20.80;46.10
38480;DHT22;62333;51.980;5.934;2023-04-30T15:56:51;20.80;46.60
38480;DHT22;62333;51.980;5.934;2023-04-30T15:59:17;20.70;45.90
38480;DHT22;62333;51.980;5.934;2023-04-30T16:01:43;20.60;46.00
38480;DHT22;62333;51.980;5.934;2023-04-30T16:04:09;20.60;46.10
38480;DHT22;62333;51.980;5.934;2023-04-30T16:06:35;20.60;46.30
38480;DHT22;62333;51.980;5.934;2023-04-30T16:09:01;20.60;46.40